Time;durP1;ratioP1;P1;durP2;ratioP2;P2;SDS_P1;SDS_P2;PMS_P1;PMS_P2;Temp;Humidity;BMP_temperature;BMP_pressure;BME280_temperature;BME280_humidity;BME280_pressure;Samples;Min_cycle;Max_cycle;Signal;HPM_P1;HPM_P2
2022/09/30 00:01:48;;;;;;;32.60;23.45;;;10.10;99.90;;;;;;5065130;28;20239;-81
2022/09/30 00:04:36;;;;;;;29.55;22.83;;;10.00;99.90;;;;;;5079733;28;20256;-82
2022/09/30 00:07:25;;;;;;;29.55;23.08;;;10.10;99.90;;;;;;5077793;28;20284;-81
2022/09/30 00:10:13;;;;;;;30.25;22.67;;;10.10;99.90;;;;;;5079073;28;20222;-82
2022/09/30 00:13:02;;;;;;;30.98;22.42;;;10.10;99.90;;;;;;5077532;28;20223;-82
2022/09/30 00:15:52;;;;;;;26.13;20.98;;;10.00;99.90;;;;;;5076709;28;20231;-82
2022/09/30 00:18:42;;;;;;;29.33;22.50;;;10.10;99.90;;;;;;5079713;28;20781;-82
2022/09/30 00:21:32;;;;;;;29.67;21.90;;;10.10;99.90;;;;;;5064849;28;20223;-82
2022/09/30 00:24:21;;;;;;;29.50;22.50;;;9.90;99.90;;;;;;5066265;28;20303;-82
2022/09/30 00:27:11;;;;;;;28.08;21.17;;;9.90;99.90;;;;;;5064211;28;20249;-82
2022/09/30 00:29:59;;;;;;;31.55;21.83;;;9.80;99.90;;;;;;5077690;28;20264;-82
2022/09/30 00:32:49;;;;;;;27.80;21.52;;;10.00;99.90;;;;;;5077031;28;20306;-81
2022/09/30 00:35:38;;;;;;;29.58;21.58;;;10.00;99.90;;;;;;5079551;28;20258;-82
2022/09/30 00:38:26;;;;;;;27.85;21.85;;;10.00;99.90;;;;;;5062661;28;20227;-82
2022/09/30 00:41:15;;;;;;;28.65;21.17;;;10.00;99.90;;;;;;5076593;28;20211;-82
2022/09/30 00:44:37;;;;;;;31.92;22.33;;;10.00;99.90;;;;;;5077217;28;20716;-83
2022/09/30 00:47:45;;;;;;;28.95;22.00;;;9.90;99.90;;;;;;5082168;28;20219;-82
2022/09/30 00:50:41;;;;;;;30.13;22.25;;;9.90;99.90;;;;;;5083057;28;20235;-82
2022/09/30 00:53:35;;;;;;;33.45;22.63;;;9.90;99.90;;;;;;5082726;28;20219;-82
2022/09/30 00:56:26;;;;;;;31.10;22.80;;;10.00;99.90;;;;;;5079022;28;20230;-81
2022/09/30 00:59:18;;;;;;;30.92;21.42;;;9.90;99.90;;;;;;5080491;28;20223;-82
2022/09/30 01:02:09;;;;;;;30.13;22.75;;;9.90;99.90;;;;;;5067338;28;20352;-81
2022/09/30 01:04:57;;;;;;;29.30;22.55;;;10.00;99.90;;;;;;5080116;28;20946;-82
2022/09/30 01:07:48;;;;;;;29.55;21.80;;;9.90;99.90;;;;;;5083239;28;20719;-82
2022/09/30 01:10:37;;;;;;;30.90;22.60;;;10.00;99.90;;;;;;5084366;28;20224;-82
2022/09/30 01:13:27;;;;;;;29.80;22.58;;;9.90;99.90;;;;;;5079878;28;20736;-82
2022/09/30 01:16:32;;;;;;;30.55;22.30;;;9.90;99.90;;;;;;5082943;28;20781;-82
2022/09/30 01:19:56;;;;;;;30.15;23.20;;;9.90;99.90;;;;;;5080480;28;20243;-82
2022/09/30 01:23:03;;;;;;;31.83;24.25;;;10.00;99.90;;;;;;5065989;28;20246;-82
2022/09/30 01:26:17;;;;;;;34.70;25.30;;;9.80;99.90;;;;;;5081129;28;20223;-82
2022/09/30 01:29:31;;;;;;;38.40;26.80;;;9.70;99.90;;;;;;5066573;28;20311;-83
2022/09/30 01:32:34;;;;;;;40.72;28.40;;;9.50;99.90;;;;;;5068239;28;20365;-82
2022/09/30 01:35:31;;;;;;;43.35;29.13;;;9.60;99.90;;;;;;5080134;28;20275;-82
2022/09/30 01:38:27;;;;;;;43.47;30.10;;;9.40;99.90;;;;;;5078098;28;20237;-82
2022/09/30 01:41:27;;;;;;;43.50;28.45;;;9.40;99.90;;;;;;5083267;28;20251;-82
2022/09/30 01:44:19;;;;;;;40.08;28.98;;;9.30;99.90;;;;;;5064827;28;20847;-82
2022/09/30 01:47:12;;;;;;;42.30;29.02;;;9.30;99.90;;;;;;5077941;28;20726;-82
2022/09/30 01:50:09;;;;;;;44.00;27.50;;;9.20;99.90;;;;;;5081543;28;20243;-82
2022/09/30 01:53:08;;;;;;;37.97;27.30;;;9.30;99.90;;;;;;5070924;28;20226;-82
2022/09/30 01:56:02;;;;;;;40.50;27.05;;;9.20;99.90;;;;;;5080035;28;20307;-82
2022/09/30 01:58:54;;;;;;;39.10;27.67;;;9.20;99.90;;;;;;5080342;28;20219;-83
2022/09/30 02:01:48;;;;;;;40.65;28.00;;;9.20;99.90;;;;;;5079865;28;20227;-83
2022/09/30 02:04:41;;;;;;;43.70;26.88;;;9.00;99.90;;;;;;5080168;28;20258;-83
2022/09/30 02:07:34;;;;;;;39.47;26.67;;;9.10;99.90;;;;;;5081201;28;20257;-83
2022/09/30 02:10:27;;;;;;;37.05;26.27;;;9.20;99.90;;;;;;5078748;28;20883;-84
2022/09/30 02:13:20;;;;;;;39.40;28.17;;;9.30;99.90;;;;;;5079553;28;20291;-84
2022/09/30 02:16:14;;;;;;;38.95;27.80;;;9.30;99.90;;;;;;5065628;28;20380;-84
2022/09/30 02:19:09;;;;;;;38.53;26.45;;;9.30;99.90;;;;;;5067261;28;20231;-85
2022/09/30 02:22:02;;;;;;;43.63;27.15;;;9.30;99.90;;;;;;5081804;28;20213;-83
2022/09/30 02:24:57;;;;;;;38.80;27.17;;;9.40;99.90;;;;;;5081129;28;20227;-84
2022/09/30 02:27:50;;;;;;;36.50;25.60;;;9.50;99.90;;;;;;5079548;28;20267;-85
2022/09/30 02:30:45;;;;;;;39.03;26.35;;;9.40;99.90;;;;;;5065906;28;20231;-84
2022/09/30 02:33:38;;;;;;;37.63;26.52;;;9.40;99.90;;;;;;5081533;28;20388;-85
2022/09/30 02:36:32;;;;;;;41.35;27.27;;;9.30;99.90;;;;;;5066012;28;20247;-83
2022/09/30 02:39:25;;;;;;;42.22;26.60;;;9.20;99.90;;;;;;5078570;28;20306;-83
2022/09/30 02:42:19;;;;;;;41.95;28.13;;;9.00;99.90;;;;;;5078555;28;20231;-82
2022/09/30 02:45:12;;;;;;;42.00;27.38;;;9.00;99.90;;;;;;5080887;28;20227;-83
2022/09/30 02:48:10;;;;;;;38.22;26.83;;;9.20;99.90;;;;;;5077839;28;20661;-83
2022/09/30 02:51:05;;;;;;;39.72;26.23;;;9.20;99.90;;;;;;5076652;28;20648;-82
2022/09/30 02:54:03;;;;;;;36.45;27.27;;;9.10;99.90;;;;;;5079112;28;20356;-82
2022/09/30 02:56:56;;;;;;;39.60;27.25;;;9.10;99.90;;;;;;5080087;28;20228;-83
2022/09/30 02:59:47;;;;;;;37.95;26.63;;;9.10;99.90;;;;;;5077268;28;20269;-82
2022/09/30 03:02:36;;;;;;;39.97;27.67;;;9.20;99.90;;;;;;5080978;28;20223;-82
2022/09/30 03:05:24;;;;;;;39.85;27.08;;;9.10;99.90;;;;;;5077753;28;21012;-82
2022/09/30 03:08:13;;;;;;;42.85;27.05;;;9.10;99.90;;;;;;5078375;28;20322;-82
2022/09/30 03:11:03;;;;;;;37.95;27.05;;;9.20;99.90;;;;;;5062238;28;20303;-82
2022/09/30 03:14:15;;;;;;;36.80;26.77;;;9.10;99.90;;;;;;5048103;28;20330;-83
2022/09/30 03:17:18;;;;;;;42.88;27.98;;;9.10;99.90;;;;;;5078654;28;20284;-83
2022/09/30 03:20:33;;;;;;;39.65;27.38;;;9.20;99.90;;;;;;5075207;28;20250;-82
2022/09/30 03:23:42;;;;;;;37.67;27.40;;;9.10;99.90;;;;;;5077276;28;20220;-83
2022/09/30 03:26:39;;;;;;;42.10;27.50;;;9.10;99.90;;;;;;5060182;28;20223;-82
2022/09/30 03:29:37;;;;;;;37.72;25.42;;;9.10;99.90;;;;;;5079099;28;20219;-82
2022/09/30 03:32:40;;;;;;;42.37;26.40;;;8.80;99.90;;;;;;5064600;28;20319;-82
2022/09/30 03:35:35;;;;;;;42.45;26.45;;;8.90;99.90;;;;;;5078902;28;20357;-83
2022/09/30 03:38:37;;;;;;;42.15;26.33;;;9.00;99.90;;;;;;5076331;28;20763;-82
2022/09/30 03:41:30;;;;;;;39.03;26.75;;;9.00;99.90;;;;;;5062929;28;20222;-82
2022/09/30 03:44:23;;;;;;;43.42;27.40;;;9.10;99.90;;;;;;5076345;28;20235;-82
2022/09/30 03:47:15;;;;;;;42.13;27.20;;;9.00;99.90;;;;;;5078768;28;21256;-83
2022/09/30 03:50:08;;;;;;;41.92;26.88;;;9.00;99.90;;;;;;5064123;28;20321;-83
2022/09/30 03:52:57;;;;;;;41.83;28.50;;;9.00;99.90;;;;;;5078436;28;20279;-83
2022/09/30 03:55:50;;;;;;;41.95;27.20;;;9.00;99.90;;;;;;5064281;28;20303;-82
2022/09/30 03:58:43;;;;;;;44.20;27.67;;;9.00;99.90;;;;;;5079177;28;20235;-84
2022/09/30 04:01:32;;;;;;;42.33;27.73;;;8.90;99.90;;;;;;5079791;28;20223;-84
2022/09/30 04:04:21;;;;;;;38.42;26.38;;;9.00;99.90;;;;;;5063695;28;20219;-85
2022/09/30 04:07:11;;;;;;;39.15;27.77;;;8.90;99.90;;;;;;5063409;28;20222;-84
2022/09/30 04:10:00;;;;;;;38.28;27.17;;;9.00;99.90;;;;;;5079287;28;20238;-83
2022/09/30 04:12:48;;;;;;;42.78;28.10;;;9.00;99.90;;;;;;5076492;28;20862;-84
2022/09/30 04:15:37;;;;;;;43.17;28.42;;;8.90;99.90;;;;;;5062484;28;20278;-83
2022/09/30 04:18:25;;;;;;;41.70;27.05;;;8.90;99.90;;;;;;5080647;28;20219;-84
2022/09/30 04:21:15;;;;;;;38.88;26.90;;;8.90;99.90;;;;;;5080559;28;20551;-84
2022/09/30 04:24:06;;;;;;;41.67;28.75;;;9.00;99.90;;;;;;5079694;28;20307;-83
2022/09/30 04:26:54;;;;;;;37.97;27.95;;;8.90;99.90;;;;;;5061695;28;20227;-84
2022/09/30 04:29:43;;;;;;;40.05;27.02;;;8.80;99.90;;;;;;5075329;28;20338;-84
2022/09/30 04:32:32;;;;;;;41.33;27.73;;;8.80;99.90;;;;;;5077006;28;20694;-83
2022/09/30 04:35:20;;;;;;;37.47;27.15;;;8.70;99.90;;;;;;5062082;28;20334;-84
2022/09/30 04:38:09;;;;;;;40.80;27.80;;;8.70;99.90;;;;;;5060183;28;20234;-83
2022/09/30 04:41:04;;;;;;;40.10;28.52;;;8.60;99.90;;;;;;5061344;28;20260;-83
2022/09/30 04:43:54;;;;;;;41.50;28.90;;;8.50;99.90;;;;;;5076364;28;20227;-83
2022/09/30 04:46:42;;;;;;;46.53;30.45;;;8.50;99.90;;;;;;5076445;28;20948;-83
2022/09/30 04:49:31;;;;;;;40.38;29.58;;;8.50;99.90;;;;;;5078750;28;20219;-83
2022/09/30 04:52:19;;;;;;;39.03;29.00;;;8.70;99.90;;;;;;5075631;28;20223;-83
2022/09/30 04:55:08;;;;;;;43.10;30.65;;;8.80;99.90;;;;;;5078258;28;20264;-83
2022/09/30 04:57:58;;;;;;;40.63;29.43;;;8.70;99.90;;;;;;5077365;28;20298;-83
2022/09/30 05:00:47;;;;;;;48.10;31.42;;;8.50;99.90;;;;;;5074594;28;20220;-83
2022/09/30 05:03:36;;;;;;;44.60;30.90;;;8.40;99.90;;;;;;5062381;28;20556;-83
2022/09/30 05:06:25;;;;;;;44.80;30.17;;;8.40;99.90;;;;;;5077433;28;20219;-84
2022/09/30 05:09:14;;;;;;;48.28;30.85;;;8.20;99.90;;;;;;5077104;28;20348;-82
2022/09/30 05:12:03;;;;;;;47.60;30.67;;;8.30;99.90;;;;;;5075912;28;20227;-84
2022/09/30 05:14:53;;;;;;;45.75;31.48;;;8.40;99.90;;;;;;5075796;28;20338;-82
2022/09/30 05:17:41;;;;;;;45.75;31.40;;;8.30;99.90;;;;;;5060682;28;20262;-83
2022/09/30 05:20:30;;;;;;;53.08;31.05;;;8.30;99.90;;;;;;5077088;28;20649;-83
2022/09/30 05:23:19;;;;;;;54.40;31.17;;;8.40;99.90;;;;;;5061803;28;20223;-84
2022/09/30 05:26:07;;;;;;;54.73;30.73;;;8.40;99.90;;;;;;5076720;28;20315;-83
2022/09/30 05:29:00;;;;;;;56.92;30.83;;;8.50;99.90;;;;;;5077726;28;20239;-83
2022/09/30 05:31:49;;;;;;;58.50;31.93;;;8.60;99.90;;;;;;5081278;28;20231;-83
2022/09/30 05:34:38;;;;;;;58.03;30.23;;;8.70;99.90;;;;;;5080266;28;20689;-84
2022/09/30 05:37:27;;;;;;;62.10;30.55;;;8.60;99.90;;;;;;5088323;28;20220;-90
2022/09/30 05:40:16;;;;;;;55.50;30.70;;;8.60;99.90;;;;;;5077267;28;20223;-91
2022/09/30 05:43:04;;;;;;;61.33;31.50;;;8.60;99.90;;;;;;5075469;28;20330;-94
2022/09/30 05:45:54;;;;;;;58.10;31.33;;;8.80;99.90;;;;;;5080751;28;20230;-92
2022/09/30 05:48:46;;;;;;;58.28;31.38;;;8.80;99.90;;;;;;5094159;28;20228;-95
2022/09/30 05:51:35;;;;;;;62.00;32.00;;;8.80;99.90;;;;;;5094842;28;20701;-92
2022/09/30 05:54:24;;;;;;;57.87;31.63;;;8.90;99.90;;;;;;5083982;28;20683;-93
2022/09/30 05:57:12;;;;;;;61.25;31.77;;;9.00;99.90;;;;;;5075830;28;20234;-90
2022/09/30 06:00:01;;;;;;;64.32;32.58;;;9.00;99.90;;;;;;5067979;28;20231;-86
2022/09/30 06:02:58;;;;;;;57.20;30.88;;;9.00;99.90;;;;;;5083699;28;20273;-89
2022/09/30 06:50:37;;;;;;;55.53;30.17;;;8.90;99.90;;;;;;5050161;27;20944;-82
2022/09/30 06:53:28;;;;;;;54.85;29.48;;;8.70;99.90;;;;;;5026839;28;20234;-79
2022/09/30 06:56:17;;;;;;;57.60;31.27;;;8.60;99.90;;;;;;5031970;28;20761;-80
2022/09/30 06:59:05;;;;;;;53.10;30.83;;;8.70;99.90;;;;;;5026072;28;20228;-82
2022/09/30 07:01:54;;;;;;;56.75;30.73;;;8.90;99.90;;;;;;5030416;28;20233;-83
2022/09/30 07:04:43;;;;;;;65.85;32.78;;;8.90;99.90;;;;;;5038626;28;20227;-82
2022/09/30 07:07:36;;;;;;;50.95;30.20;;;9.00;99.90;;;;;;5057513;28;20224;-82
2022/09/30 07:10:25;;;;;;;56.97;31.42;;;8.90;99.90;;;;;;5065520;28;20228;-83
2022/09/30 07:13:13;;;;;;;57.40;31.98;;;9.10;99.90;;;;;;5064922;28;20224;-82
2022/09/30 07:16:02;;;;;;;48.90;29.40;;;8.90;99.90;;;;;;5041246;28;20224;-79
2022/09/30 07:18:51;;;;;;;52.28;28.70;;;9.00;99.90;;;;;;5050240;28;20315;-82
2022/09/30 07:21:40;;;;;;;55.47;30.13;;;9.10;99.90;;;;;;5048671;28;20220;-80
2022/09/30 07:24:33;;;;;;;53.30;30.13;;;9.20;99.90;;;;;;5054581;28;20250;-80
2022/09/30 07:27:22;;;;;;;56.35;29.15;;;9.20;99.90;;;;;;5037915;28;20358;-80
2022/09/30 07:30:11;;;;;;;46.55;28.52;;;9.30;99.90;;;;;;5049548;28;20259;-80
2022/09/30 07:33:15;;;;;;;50.95;30.50;;;9.50;99.90;;;;;;5050786;28;20224;-79
2022/09/30 07:36:07;;;;;;;75.18;29.75;;;9.60;99.90;;;;;;5051916;28;20216;-80
2022/09/30 07:38:56;;;;;;;49.38;29.98;;;9.60;99.90;;;;;;5050522;28;20212;-81
2022/09/30 07:41:46;;;;;;;49.38;29.02;;;9.60;99.90;;;;;;5046470;28;20231;-81
2022/09/30 07:44:35;;;;;;;53.45;31.10;;;9.80;99.90;;;;;;5056124;28;20313;-80
2022/09/30 07:47:24;;;;;;;52.40;31.42;;;9.70;99.90;;;;;;5051350;28;20224;-80
2022/09/30 07:50:14;;;;;;;59.45;34.65;;;9.70;99.90;;;;;;5051909;28;20579;-80
2022/09/30 07:53:02;;;;;;;53.58;31.13;;;10.10;99.90;;;;;;5050881;28;20221;-81
2022/09/30 07:55:51;;;;;;;53.78;30.73;;;10.10;99.90;;;;;;5050858;28;20224;-80
2022/09/30 07:58:42;;;;;;;48.83;30.77;;;10.60;99.90;;;;;;5038043;28;20233;-79
2022/09/30 08:01:31;;;;;;;48.70;28.65;;;10.80;99.90;;;;;;5030768;28;20719;-79
2022/09/30 08:04:20;;;;;;;47.67;29.45;;;10.70;99.90;;;;;;5039908;28;20224;-81
2022/09/30 08:07:09;;;;;;;46.70;29.23;;;10.70;99.90;;;;;;5035038;28;20221;-79
2022/09/30 08:09:57;;;;;;;45.45;29.27;;;10.70;99.90;;;;;;5033330;28;20217;-89
2022/09/30 08:12:46;;;;;;;49.80;31.50;;;10.80;99.90;;;;;;5048843;28;20228;-86
2022/09/30 08:15:36;;;;;;;47.25;30.55;;;10.70;99.90;;;;;;5039452;28;22687;-87
2022/09/30 08:18:26;;;;;;;49.28;29.55;;;10.80;99.90;;;;;;5027384;28;20237;-87
2022/09/30 08:21:15;;;;;;;46.20;30.50;;;10.90;99.90;;;;;;5043630;28;20308;-86
2022/09/30 08:24:04;;;;;;;46.08;29.70;;;11.20;99.90;;;;;;5042218;28;20712;-86
2022/09/30 08:26:53;;;;;;;52.30;31.25;;;11.40;99.90;;;;;;5026608;28;20247;-86
2022/09/30 08:29:42;;;;;;;47.75;30.85;;;11.60;99.90;;;;;;5044664;28;20239;-86
2022/09/30 08:32:44;;;;;;;46.70;29.15;;;11.90;99.90;;;;;;5034051;28;20225;-86
2022/09/30 08:35:35;;;;;;;45.45;30.25;;;11.80;99.90;;;;;;5042271;28;20710;-87
2022/09/30 08:38:23;;;;;;;47.42;30.60;;;11.90;99.90;;;;;;5041613;28;20236;-85
2022/09/30 08:41:29;;;;;;;45.83;30.38;;;12.00;99.90;;;;;;5044180;28;20251;-85
2022/09/30 08:44:36;;;;;;;45.95;29.58;;;12.00;99.90;;;;;;5041160;28;20285;-86
2022/09/30 08:47:40;;;;;;;43.45;29.52;;;12.10;99.90;;;;;;5027921;28;20255;-86
2022/09/30 08:50:37;;;;;;;44.65;30.17;;;12.20;99.90;;;;;;5033102;28;20231;-86
2022/09/30 08:53:29;;;;;;;42.72;29.58;;;12.20;99.90;;;;;;5020277;28;20287;-85
2022/09/30 08:56:23;;;;;;;43.33;29.10;;;12.00;99.90;;;;;;5021507;28;20214;-86
2022/09/30 08:59:25;;;;;;;45.78;29.90;;;12.10;99.90;;;;;;4990336;28;20330;-84
2022/09/30 09:02:21;;;;;;;52.33;32.40;;;12.20;99.90;;;;;;5027271;28;20225;-87
2022/09/30 09:05:16;;;;;;;50.72;34.05;;;12.30;99.90;;;;;;5019562;28;20273;-86
2022/09/30 09:08:15;;;;;;;52.67;33.92;;;12.30;99.90;;;;;;5017306;28;20225;-85
2022/09/30 09:11:11;;;;;;;56.58;35.15;;;12.30;99.90;;;;;;5027118;28;20277;-84
2022/09/30 09:14:04;;;;;;;48.35;33.80;;;12.40;99.90;;;;;;5025894;28;20236;-85
2022/09/30 09:17:05;;;;;;;52.58;34.35;;;12.40;99.90;;;;;;5049248;28;20427;-85
2022/09/30 09:20:02;;;;;;;51.95;35.17;;;12.50;99.90;;;;;;5050656;28;20224;-84
2022/09/30 09:22:52;;;;;;;43.70;31.50;;;12.60;99.90;;;;;;5038259;28;20321;-85
2022/09/30 09:25:45;;;;;;;37.50;30.40;;;12.50;99.90;;;;;;5022791;28;20237;-85
2022/09/30 09:28:39;;;;;;;36.42;27.25;;;12.50;99.90;;;;;;5047791;28;20225;-85
2022/09/30 09:31:28;;;;;;;34.53;26.48;;;12.40;99.90;;;;;;5051809;28;20221;-84
2022/09/30 09:34:17;;;;;;;38.25;25.48;;;12.50;99.90;;;;;;5037544;28;20948;-84
2022/09/30 09:37:18;;;;;;;33.70;24.98;;;12.50;99.90;;;;;;5052247;28;20231;-84
2022/09/30 09:40:10;;;;;;;33.70;25.50;;;12.80;99.90;;;;;;5053998;28;20347;-84
2022/09/30 09:43:11;;;;;;;34.38;26.17;;;12.80;99.90;;;;;;5021015;28;20715;-85
2022/09/30 09:46:09;;;;;;;83.03;31.75;;;13.00;99.90;;;;;;5049922;28;20244;-85
2022/09/30 09:49:29;;;;;;;36.30;26.50;;;13.10;99.90;;;;;;5043688;28;20236;-85
2022/09/30 09:52:47;;;;;;;35.17;26.40;;;13.10;99.90;;;;;;5070482;28;20235;-82
2022/09/30 09:55:37;;;;;;;46.78;26.67;;;13.00;99.90;;;;;;5058605;28;20233;-86
2022/09/30 09:58:27;;;;;;;36.70;25.25;;;12.80;99.90;;;;;;5061029;28;20235;-85
2022/09/30 10:01:32;;;;;;;35.22;26.20;;;12.90;99.90;;;;;;5059528;28;20224;-85
2022/09/30 10:04:25;;;;;;;41.75;25.65;;;12.90;99.90;;;;;;5057824;28;20234;-83
2022/09/30 10:07:14;;;;;;;35.95;24.10;;;13.10;99.90;;;;;;5058497;28;21035;-86
2022/09/30 10:10:15;;;;;;;42.65;23.83;;;13.20;99.90;;;;;;5055008;28;20228;-85
2022/09/30 10:13:17;;;;;;;30.08;20.58;;;13.20;99.90;;;;;;5054860;28;20339;-85
2022/09/30 10:16:24;;;;;;;29.60;19.83;;;13.40;99.90;;;;;;5053962;28;20223;-85
2022/09/30 10:19:21;;;;;;;27.77;20.25;;;13.50;99.90;;;;;;5058707;28;20231;-86
2022/09/30 10:22:24;;;;;;;24.67;20.10;;;13.80;99.90;;;;;;5071149;28;20223;-84
2022/09/30 10:25:20;;;;;;;26.80;20.35;;;13.50;99.90;;;;;;5051205;28;20219;-85
2022/09/30 10:28:23;;;;;;;28.95;18.48;;;13.50;99.90;;;;;;5054974;28;20228;-85
2022/09/30 10:31:17;;;;;;;23.75;18.02;;;13.60;99.90;;;;;;5052568;28;20220;-85
2022/09/30 10:34:11;;;;;;;23.88;17.42;;;13.60;99.90;;;;;;5055447;28;20650;-85
2022/09/30 10:37:02;;;;;;;22.10;15.45;;;13.50;99.90;;;;;;5067601;28;20224;-85
2022/09/30 10:40:00;;;;;;;20.83;14.73;;;13.60;99.90;;;;;;5066436;28;20599;-85
2022/09/30 10:42:49;;;;;;;18.75;14.82;;;13.60;99.90;;;;;;5050926;28;20217;-83
2022/09/30 10:45:40;;;;;;;17.77;12.95;;;13.70;99.90;;;;;;5049841;28;20228;-85
2022/09/30 10:48:33;;;;;;;15.95;12.55;;;13.90;99.90;;;;;;5048584;28;20232;-86
2022/09/30 10:51:29;;;;;;;16.10;12.35;;;14.00;99.90;;;;;;5055948;28;20200;-85
2022/09/30 10:54:34;;;;;;;16.92;11.65;;;14.00;99.90;;;;;;5054425;28;20243;-86
2022/09/30 10:57:25;;;;;;;15.15;10.88;;;13.90;99.90;;;;;;5054008;28;20319;-85
2022/09/30 11:00:18;;;;;;;14.45;10.73;;;14.00;99.90;;;;;;5049949;28;20224;-85
2022/09/30 11:03:16;;;;;;;13.43;9.20;;;14.00;99.90;;;;;;5066693;28;20863;-85
2022/09/30 11:06:11;;;;;;;11.85;9.82;;;13.90;99.90;;;;;;5052468;28;20196;-85
2022/09/30 11:09:06;;;;;;;14.57;9.82;;;13.90;99.90;;;;;;5061135;28;20188;-86
2022/09/30 11:11:59;;;;;;;33.20;10.73;;;14.00;99.90;;;;;;5055935;28;20571;-84
2022/09/30 11:14:57;;;;;;;10.93;8.68;;;13.90;99.90;;;;;;5064502;28;20201;-87
2022/09/30 11:17:53;;;;;;;12.13;9.13;;;13.90;99.90;;;;;;5065766;28;20212;-86
2022/09/30 11:20:47;;;;;;;12.60;9.25;;;13.80;99.90;;;;;;5064029;28;20204;-84
2022/09/30 11:23:42;;;;;;;15.45;10.30;;;13.90;99.90;;;;;;5058440;28;20237;-86
2022/09/30 11:26:41;;;;;;;24.38;10.40;;;13.90;99.90;;;;;;5052689;28;20192;-86
2022/09/30 11:29:50;;;;;;;11.27;9.75;;;13.80;99.90;;;;;;5055091;28;20196;-85
2022/09/30 11:33:03;;;;;;;14.27;10.02;;;13.90;99.90;;;;;;5059231;28;20273;-85
2022/09/30 11:36:00;;;;;;;27.38;10.40;;;14.00;99.90;;;;;;5067551;28;20227;-85
2022/09/30 11:39:18;;;;;;;30.48;11.30;;;14.00;99.90;;;;;;5070549;28;20196;-86
2022/09/30 11:42:14;;;;;;;16.40;9.55;;;14.20;99.90;;;;;;5059035;28;20578;-86
2022/09/30 11:45:13;;;;;;;35.55;10.45;;;14.20;99.90;;;;;;5057494;28;20840;-84
2022/09/30 11:48:24;;;;;;;29.23;8.50;;;14.20;99.90;;;;;;5069943;28;20192;-84
2022/09/30 11:51:27;;;;;;;56.17;11.02;;;14.20;99.90;;;;;;5069814;28;20223;-85
2022/09/30 11:54:30;;;;;;;24.95;10.43;;;14.40;99.90;;;;;;5058476;28;20493;-85
2022/09/30 11:57:24;;;;;;;50.85;11.20;;;14.40;99.90;;;;;;5059081;28;20354;-85
2022/09/30 12:00:16;;;;;;;20.33;9.35;;;14.50;99.90;;;;;;5054952;28;20753;-85
2022/09/30 12:03:09;;;;;;;31.85;9.60;;;14.30;99.90;;;;;;5058791;28;20255;-85
2022/09/30 12:06:07;;;;;;;14.60;8.38;;;14.20;99.90;;;;;;5059839;28;20261;-85
2022/09/30 12:08:58;;;;;;;11.20;8.82;;;14.20;99.90;;;;;;5057496;28;20228;-85
2022/09/30 12:11:56;;;;;;;17.30;7.88;;;14.30;99.90;;;;;;5062567;28;20197;-84
2022/09/30 12:14:48;;;;;;;14.32;8.60;;;14.10;99.90;;;;;;5056437;28;20286;-84
2022/09/30 12:17:41;;;;;;;10.82;8.32;;;14.20;99.90;;;;;;5056999;28;20204;-85
2022/09/30 12:20:34;;;;;;;10.30;7.32;;;14.30;99.90;;;;;;5066069;28;20551;-84
2022/09/30 12:23:31;;;;;;;10.98;8.27;;;14.10;99.90;;;;;;5058796;28;20196;-83
2022/09/30 12:26:20;;;;;;;9.75;8.00;;;14.20;99.90;;;;;;5068187;28;20207;-85
2022/09/30 12:33:17;;;;;;;14.00;7.82;;;14.30;99.90;;;;;;5061990;28;20287;-84
2022/09/30 12:36:21;;;;;;;15.05;9.57;;;14.30;99.90;;;;;;5072394;28;20197;-85
2022/09/30 12:39:42;;;;;;;10.07;8.02;;;14.20;99.90;;;;;;5063668;28;20200;-85
2022/09/30 12:42:52;;;;;;;11.68;8.48;;;14.40;99.90;;;;;;5065482;28;20219;-85
2022/09/30 12:46:09;;;;;;;10.52;8.60;;;14.40;99.90;;;;;;5057699;28;20211;-85
2022/09/30 12:49:02;;;;;;;13.82;8.63;;;14.40;99.90;;;;;;5054032;28;20982;-85
2022/09/30 12:51:56;;;;;;;28.08;9.20;;;14.40;99.90;;;;;;5069612;28;20192;-86
2022/09/30 12:54:52;;;;;;;17.10;8.57;;;14.40;99.90;;;;;;5068239;28;20193;-85
2022/09/30 12:57:43;;;;;;;16.75;9.20;;;14.40;99.90;;;;;;5057811;28;20201;-84
2022/09/30 13:00:33;;;;;;;11.75;8.43;;;14.50;99.90;;;;;;5058280;28;20204;-83
2022/09/30 13:03:25;;;;;;;12.00;8.23;;;14.50;99.90;;;;;;5061176;28;20691;-85
2022/09/30 13:06:15;;;;;;;11.52;9.02;;;14.30;99.90;;;;;;5067001;28;20212;-82
2022/09/30 13:09:21;;;;;;;11.75;9.65;;;14.30;99.90;;;;;;5067937;28;20188;-84
2022/09/30 13:12:24;;;;;;;14.30;9.73;;;14.30;99.90;;;;;;5057538;28;20563;-84
2022/09/30 13:15:42;;;;;;;11.63;8.52;;;14.40;99.90;;;;;;5070247;28;20714;-84
2022/09/30 13:19:02;;;;;;;12.00;9.07;;;14.30;99.90;;;;;;5070588;28;20908;-84
2022/09/30 13:21:50;;;;;;;9.27;8.25;;;14.30;99.90;;;;;;5046792;28;20679;-85
2022/09/30 13:25:10;;;;;;;10.82;8.25;;;14.40;99.90;;;;;;5054824;28;20197;-84
2022/09/30 13:28:28;;;;;;;9.80;7.93;;;14.50;99.90;;;;;;5061253;28;20201;-84
2022/09/30 13:31:18;;;;;;;26.25;8.50;;;14.60;99.90;;;;;;5061731;28;20850;-84
2022/09/30 13:34:14;;;;;;;8.75;6.78;;;14.60;99.90;;;;;;5063221;28;20678;-85
2022/09/30 13:37:04;;;;;;;8.25;6.03;;;14.50;99.90;;;;;;5068383;28;20322;-84
2022/09/30 13:39:56;;;;;;;9.40;6.53;;;14.50;99.90;;;;;;5062149;28;20211;-84
2022/09/30 13:42:52;;;;;;;10.27;7.07;;;14.40;99.90;;;;;;5056419;28;20209;-85
2022/09/30 13:45:43;;;;;;;9.55;6.72;;;14.40;99.90;;;;;;5056900;28;20200;-84
2022/09/30 13:48:35;;;;;;;9.93;6.20;;;14.40;99.90;;;;;;5055849;28;20286;-85
2022/09/30 13:51:29;;;;;;;9.07;5.97;;;14.20;99.90;;;;;;5056089;28;20205;-84
2022/09/30 13:54:26;;;;;;;19.50;6.90;;;14.20;99.90;;;;;;5064852;28;20192;-84
2022/09/30 13:57:20;;;;;;;36.55;8.05;;;14.30;99.90;;;;;;5062619;28;20208;-85
2022/09/30 14:00:14;;;;;;;31.83;7.65;;;14.20;99.90;;;;;;5062234;28;20211;-85
2022/09/30 14:03:13;;;;;;;12.15;6.13;;;14.20;99.90;;;;;;5058891;28;20737;-85
2022/09/30 14:06:10;;;;;;;9.13;6.50;;;14.30;99.90;;;;;;5056957;28;20208;-85
2022/09/30 14:09:12;;;;;;;11.27;6.22;;;14.20;99.90;;;;;;5065265;28;20288;-85
2022/09/30 14:12:23;;;;;;;7.85;6.25;;;14.30;99.90;;;;;;5055403;28;20291;-84
2022/09/30 14:15:26;;;;;;;7.60;6.78;;;14.20;99.90;;;;;;5055823;28;20196;-85
2022/09/30 14:18:44;;;;;;;13.32;6.90;;;14.10;99.90;;;;;;5066158;28;20192;-85
2022/09/30 14:21:41;;;;;;;7.65;6.50;;;14.20;99.90;;;;;;5067306;28;20200;-85
2022/09/30 14:24:35;;;;;;;8.18;6.45;;;14.10;99.90;;;;;;5059128;28;20613;-84
2022/09/30 14:27:41;;;;;;;9.82;7.00;;;14.10;99.90;;;;;;5047132;28;20665;-84
2022/09/30 14:30:39;;;;;;;15.48;11.73;;;14.20;99.90;;;;;;5060304;28;21176;-85
2022/09/30 14:33:30;;;;;;;10.60;7.85;;;14.10;99.90;;;;;;5038684;28;20189;-84
2022/09/30 14:36:21;;;;;;;9.52;8.07;;;14.10;99.90;;;;;;5065020;28;20273;-84
2022/09/30 14:39:16;;;;;;;9.73;8.00;;;14.10;99.90;;;;;;5068903;28;20226;-85
2022/09/30 14:42:18;;;;;;;11.95;8.40;;;14.10;99.90;;;;;;5059901;28;20691;-86
2022/09/30 14:45:08;;;;;;;11.80;8.98;;;14.10;99.90;;;;;;5066035;28;20196;-83
2022/09/30 14:48:01;;;;;;;11.88;8.65;;;14.20;99.90;;;;;;5053263;28;20207;-85
2022/09/30 14:50:55;;;;;;;13.15;8.50;;;14.20;99.90;;;;;;5064818;28;20345;-84
2022/09/30 14:53:54;;;;;;;8.98;7.38;;;14.10;99.90;;;;;;5054788;28;20199;-85
2022/09/30 14:56:42;;;;;;;9.07;7.22;;;14.10;99.90;;;;;;5057629;28;20196;-84
2022/09/30 14:59:35;;;;;;;11.77;7.55;;;14.10;99.90;;;;;;5066906;28;20229;-84
2022/09/30 15:02:30;;;;;;;10.85;7.47;;;14.00;99.90;;;;;;5056129;28;20213;-84
2022/09/30 15:05:19;;;;;;;9.82;8.25;;;13.90;99.90;;;;;;5070895;28;20220;-85
2022/09/30 15:08:11;;;;;;;9.80;7.28;;;13.90;99.90;;;;;;5054403;28;20658;-85
2022/09/30 15:11:00;;;;;;;9.77;7.65;;;13.90;99.90;;;;;;5068332;28;20200;-85
2022/09/30 15:13:51;;;;;;;9.55;7.68;;;14.00;99.90;;;;;;5061683;28;20197;-85
2022/09/30 15:16:47;;;;;;;9.85;8.05;;;14.00;99.90;;;;;;5072476;28;20205;-85
2022/09/30 15:19:43;;;;;;;8.27;7.15;;;13.90;99.90;;;;;;5071410;28;20220;-86
2022/09/30 15:22:32;;;;;;;16.80;8.40;;;13.90;99.90;;;;;;5059596;28;20231;-85
2022/09/30 15:25:21;;;;;;;10.40;8.40;;;13.90;99.90;;;;;;5060205;28;20216;-85
2022/09/30 15:28:10;;;;;;;12.13;8.68;;;13.80;99.90;;;;;;5055644;28;20205;-85
2022/09/30 15:31:00;;;;;;;11.60;8.57;;;14.00;99.90;;;;;;5068493;28;20414;-85
2022/09/30 15:34:00;;;;;;;11.73;9.65;;;14.00;99.90;;;;;;5058693;28;20881;-85
2022/09/30 15:36:57;;;;;;;11.50;9.25;;;13.90;99.90;;;;;;5060317;28;20937;-84
2022/09/30 15:43:00;;;;;;;12.07;9.48;;;14.00;99.90;;;;;;5064064;28;20212;-84
2022/09/30 15:45:50;;;;;;;11.93;9.75;;;14.00;99.90;;;;;;5070650;28;20201;-85
2022/09/30 15:48:43;;;;;;;11.73;9.85;;;13.80;99.90;;;;;;5058869;28;20237;-84